Time;durP1;ratioP1;P1;durP2;ratioP2;P2;SDS_P1;SDS_P2;PMS_P1;PMS_P2;Temp;Humidity;BMP_temperature;BMP_pressure;BME280_temperature;BME280_humidity;BME280_pressure;Samples;Min_cycle;Max_cycle;Signal;HPM_P1;HPM_P2
2023/03/10 00:02:19;;;;;;;5.10;2.37;;;9.70;99.90;;;;;;5014892;28;20471;-81
2023/03/10 00:04:50;;;;;;;5.63;2.80;;;9.70;99.90;;;;;;5015629;28;20477;-80
2023/03/10 00:07:17;;;;;;;4.90;2.37;;;9.70;99.90;;;;;;5014734;28;20892;-80
2023/03/10 00:09:44;;;;;;;4.53;2.13;;;9.70;99.90;;;;;;5014739;28;20447;-80
2023/03/10 00:12:11;;;;;;;7.93;2.30;;;9.70;99.90;;;;;;5016826;28;20457;-80
2023/03/10 00:14:38;;;;;;;6.87;2.13;;;9.70;99.90;;;;;;5018429;28;20491;-80
2023/03/10 00:17:05;;;;;;;8.73;2.30;;;9.70;99.90;;;;;;5018520;28;20471;-80
2023/03/10 00:19:33;;;;;;;3.90;1.97;;;9.70;99.90;;;;;;5018575;28;20475;-81
2023/03/10 00:22:01;;;;;;;4.00;1.70;;;9.70;99.90;;;;;;5017822;28;20523;-80
2023/03/10 00:24:28;;;;;;;5.13;2.87;;;9.70;99.90;;;;;;5018299;28;20463;-81
2023/03/10 00:26:55;;;;;;;4.30;2.20;;;9.70;99.90;;;;;;5017949;28;20468;-81
2023/03/10 00:29:22;;;;;;;8.57;2.37;;;9.80;99.90;;;;;;5018300;28;21111;-80
2023/03/10 00:31:48;;;;;;;4.83;1.50;;;9.80;99.90;;;;;;5017424;28;20572;-81
2023/03/10 00:34:15;;;;;;;5.97;2.03;;;9.80;99.90;;;;;;5018835;28;20456;-81
2023/03/10 00:36:43;;;;;;;3.30;1.47;;;9.80;99.90;;;;;;5017754;28;20487;-81
2023/03/10 00:39:10;;;;;;;7.27;2.50;;;9.80;99.90;;;;;;5017888;28;20488;-80
2023/03/10 00:41:38;;;;;;;2.83;1.87;;;9.80;99.90;;;;;;5017890;28;20466;-81
2023/03/10 00:44:08;;;;;;;5.60;2.17;;;9.90;99.90;;;;;;5018054;28;20456;-80
2023/03/10 00:46:37;;;;;;;4.10;1.70;;;9.90;99.90;;;;;;5017774;28;20476;-79
2023/03/10 00:49:04;;;;;;;3.20;1.90;;;9.90;99.90;;;;;;5017971;28;20487;-81
2023/03/10 00:51:31;;;;;;;3.63;2.10;;;9.90;99.90;;;;;;5018158;28;20538;-80
2023/03/10 00:53:59;;;;;;;3.80;2.10;;;9.90;99.90;;;;;;5017585;28;20482;-81
2023/03/10 00:56:27;;;;;;;9.80;2.67;;;9.90;99.90;;;;;;5017806;28;20481;-80
2023/03/10 00:58:55;;;;;;;4.20;1.60;;;9.90;99.90;;;;;;5018558;28;20474;-81
2023/03/10 01:01:24;;;;;;;3.00;1.80;;;9.90;99.90;;;;;;5018227;28;20869;-82
2023/03/10 01:03:52;;;;;;;8.00;2.93;;;9.90;99.90;;;;;;5017821;28;20460;-80
2023/03/10 01:06:20;;;;;;;4.43;2.23;;;9.90;99.90;;;;;;5018194;28;20477;-81
2023/03/10 01:08:47;;;;;;;5.93;2.30;;;9.90;99.90;;;;;;5018203;28;20867;-81
2023/03/10 01:11:16;;;;;;;3.83;2.47;;;9.90;99.90;;;;;;5017701;28;20461;-81
2023/03/10 01:13:43;;;;;;;4.00;1.80;;;9.90;99.90;;;;;;5018792;28;20459;-81
2023/03/10 01:16:09;;;;;;;2.23;1.60;;;9.90;99.90;;;;;;5017610;28;20471;-81
2023/03/10 01:18:37;;;;;;;3.33;1.50;;;9.80;99.90;;;;;;5018144;28;20857;-81
2023/03/10 01:21:04;;;;;;;2.43;1.30;;;9.90;99.90;;;;;;5017778;28;20455;-80
2023/03/10 01:23:31;;;;;;;2.50;1.30;;;9.90;99.90;;;;;;5018420;28;21063;-82
2023/03/10 01:25:58;;;;;;;6.03;1.30;;;9.90;99.90;;;;;;5017875;28;20510;-81
2023/03/10 01:28:26;;;;;;;3.40;1.97;;;9.90;99.90;;;;;;5019089;28;20485;-81
2023/03/10 01:30:53;;;;;;;1.97;1.47;;;9.90;99.90;;;;;;5017686;28;20979;-81
2023/03/10 01:33:20;;;;;;;2.83;1.80;;;9.90;99.90;;;;;;5018447;28;20475;-80
2023/03/10 01:35:47;;;;;;;5.90;1.40;;;9.90;99.90;;;;;;5017347;28;21012;-81
2023/03/10 01:38:14;;;;;;;3.97;2.00;;;9.90;99.90;;;;;;5018008;28;20452;-81
2023/03/10 01:40:42;;;;;;;1.80;1.17;;;9.80;99.90;;;;;;4998684;28;20871;-82
2023/03/10 01:43:33;;;;;;;2.00;1.40;;;9.80;99.90;;;;;;4998716;28;20549;-80
2023/03/10 01:46:51;;;;;;;3.33;1.57;;;9.80;99.90;;;;;;4994506;28;20504;-80
2023/03/10 01:49:35;;;;;;;2.87;1.67;;;9.80;99.90;;;;;;5005855;28;20493;-81
2023/03/10 01:52:06;;;;;;;2.57;1.57;;;9.70;99.90;;;;;;5018367;28;20455;-81
2023/03/10 01:54:40;;;;;;;5.83;1.60;;;9.70;99.90;;;;;;5018068;28;20462;-81
2023/03/10 01:57:07;;;;;;;2.67;1.57;;;9.70;99.90;;;;;;5018236;28;20447;-81
2023/03/10 01:59:36;;;;;;;2.13;1.53;;;9.70;99.90;;;;;;5017480;28;20488;-81
2023/03/10 02:02:04;;;;;;;2.90;1.70;;;9.70;99.90;;;;;;5018017;28;20458;-81
2023/03/10 02:04:35;;;;;;;2.63;1.70;;;9.60;99.90;;;;;;5018012;28;20464;-81
2023/03/10 02:07:06;;;;;;;6.67;1.70;;;9.60;99.90;;;;;;5017956;28;20479;-79
2023/03/10 02:09:36;;;;;;;2.30;1.50;;;9.60;99.90;;;;;;5016800;28;20857;-80
2023/03/10 02:12:04;;;;;;;3.13;1.70;;;9.60;99.90;;;;;;5016579;28;20559;-81
2023/03/10 02:14:31;;;;;;;2.50;2.07;;;9.60;99.90;;;;;;5016518;28;20460;-81
2023/03/10 02:17:00;;;;;;;3.10;2.27;;;9.60;99.90;;;;;;5016934;28;20453;-80
2023/03/10 02:19:43;;;;;;;2.57;1.90;;;9.50;99.90;;;;;;5016146;28;20491;-80
2023/03/10 02:22:11;;;;;;;2.60;2.23;;;9.60;99.90;;;;;;5016223;28;20450;-81
2023/03/10 02:24:45;;;;;;;5.00;1.80;;;9.50;99.90;;;;;;5017146;28;20822;-81
2023/03/10 02:27:26;;;;;;;2.53;2.33;;;9.60;99.90;;;;;;4997625;28;20463;-81
2023/03/10 02:29:59;;;;;;;3.03;2.40;;;9.70;99.90;;;;;;5007475;28;20495;-81
2023/03/10 02:32:26;;;;;;;3.53;2.70;;;9.60;99.90;;;;;;5016836;28;20459;-81
2023/03/10 02:34:53;;;;;;;3.60;2.80;;;9.70;99.90;;;;;;5016102;28;20478;-81
2023/03/10 02:37:22;;;;;;;3.00;2.70;;;9.70;99.90;;;;;;5017306;28;20459;-81
2023/03/10 02:39:49;;;;;;;2.90;2.37;;;9.70;99.90;;;;;;5017404;28;20534;-81
2023/03/10 02:42:17;;;;;;;3.20;2.47;;;9.70;99.90;;;;;;5017158;28;20644;-81
2023/03/10 02:44:47;;;;;;;4.27;2.97;;;9.70;99.90;;;;;;5019485;28;20930;-80
2023/03/10 02:47:14;;;;;;;4.83;3.80;;;9.60;99.90;;;;;;5021742;28;20928;-81
2023/03/10 02:49:42;;;;;;;3.73;3.30;;;9.70;99.90;;;;;;5020919;28;20521;-81
2023/03/10 02:52:19;;;;;;;4.30;3.90;;;9.70;99.90;;;;;;5023068;28;20462;-80
2023/03/10 02:54:46;;;;;;;7.00;5.53;;;9.70;99.90;;;;;;5021817;28;20508;-80
2023/03/10 02:57:13;;;;;;;7.00;6.07;;;9.60;99.90;;;;;;5018363;28;20473;-80
2023/03/10 02:59:40;;;;;;;8.63;5.83;;;9.70;99.90;;;;;;5018490;28;20464;-81
2023/03/10 03:02:08;;;;;;;8.23;7.20;;;9.70;99.90;;;;;;5020303;28;20451;-80
2023/03/10 03:04:35;;;;;;;5.40;4.80;;;9.70;99.90;;;;;;5018026;28;20543;-80
2023/03/10 03:07:02;;;;;;;6.87;5.00;;;9.70;99.90;;;;;;5016145;28;20459;-81
2023/03/10 03:09:29;;;;;;;6.50;5.03;;;9.70;99.90;;;;;;5016132;28;21046;-80
2023/03/10 03:11:56;;;;;;;4.80;4.00;;;9.80;99.90;;;;;;5015960;28;20460;-81
2023/03/10 03:14:23;;;;;;;4.00;3.17;;;9.70;99.90;;;;;;5016246;28;20523;-78
2023/03/10 03:16:49;;;;;;;4.60;3.40;;;9.70;99.90;;;;;;5016968;28;20459;-81
2023/03/10 03:19:18;;;;;;;4.87;3.57;;;9.70;99.90;;;;;;5016542;28;20898;-80
2023/03/10 03:21:48;;;;;;;6.10;3.93;;;9.80;99.90;;;;;;5015906;28;20543;-80
2023/03/10 03:24:16;;;;;;;3.57;2.80;;;9.70;99.90;;;;;;5016449;28;20456;-81
2023/03/10 03:26:42;;;;;;;4.57;3.30;;;9.80;99.90;;;;;;5017207;28;20479;-82
2023/03/10 03:29:10;;;;;;;4.60;2.47;;;9.80;99.90;;;;;;5016141;28;20595;-78
2023/03/10 03:31:38;;;;;;;4.30;2.80;;;9.80;99.90;;;;;;5015482;28;20490;-82
2023/03/10 03:34:06;;;;;;;8.20;3.17;;;9.80;99.90;;;;;;5015944;28;20448;-80
2023/03/10 03:36:36;;;;;;;3.77;2.27;;;9.80;99.90;;;;;;5015716;28;20469;-79
2023/03/10 03:39:05;;;;;;;4.70;2.87;;;9.80;99.90;;;;;;5016591;28;20452;-82
2023/03/10 03:41:32;;;;;;;4.20;2.50;;;9.80;99.90;;;;;;5016532;28;20487;-82
2023/03/10 03:43:59;;;;;;;7.53;3.13;;;9.80;99.90;;;;;;5016001;28;20455;-80
2023/03/10 03:46:25;;;;;;;4.50;2.90;;;9.80;99.90;;;;;;5017791;28;20472;-80
2023/03/10 03:48:52;;;;;;;4.83;2.13;;;9.80;99.90;;;;;;5019702;28;20492;-80
2023/03/10 03:51:19;;;;;;;8.43;2.57;;;9.80;99.90;;;;;;5019483;28;20457;-80
2023/03/10 03:53:47;;;;;;;4.77;2.47;;;9.80;99.90;;;;;;5020048;28;20849;-80
2023/03/10 03:56:14;;;;;;;4.27;1.90;;;9.80;99.90;;;;;;5019533;28;20477;-81
2023/03/10 03:58:41;;;;;;;6.40;2.30;;;9.80;99.90;;;;;;5018669;28;20452;-81
2023/03/10 04:01:08;;;;;;;3.77;1.90;;;9.80;99.90;;;;;;5018910;28;20466;-80
2023/03/10 04:03:35;;;;;;;3.30;1.80;;;9.80;99.90;;;;;;5018851;28;20463;-82
2023/03/10 04:06:02;;;;;;;5.90;2.23;;;9.80;99.90;;;;;;5019276;28;20469;-80
2023/03/10 04:08:29;;;;;;;6.53;2.10;;;9.90;99.90;;;;;;5020090;28;20562;-80
2023/03/10 04:10:57;;;;;;;3.83;1.70;;;9.80;99.90;;;;;;5020315;28;20459;-80
2023/03/10 04:13:24;;;;;;;4.43;1.73;;;9.90;99.90;;;;;;5020686;28;20834;-80
2023/03/10 04:15:55;;;;;;;3.50;1.70;;;9.90;99.90;;;;;;5020633;28;20960;-80
2023/03/10 04:18:22;;;;;;;9.43;3.30;;;9.80;99.90;;;;;;5020960;28;20455;-80
2023/03/10 04:20:48;;;;;;;4.80;2.00;;;9.80;99.90;;;;;;5020333;28;20536;-80
2023/03/10 04:23:16;;;;;;;3.70;2.13;;;9.90;99.90;;;;;;5021246;28;20456;-79
2023/03/10 04:25:43;;;;;;;4.20;2.23;;;9.80;99.90;;;;;;5030302;23;20818;-81
2023/03/10 04:28:11;;;;;;;3.60;2.47;;;9.80;99.90;;;;;;5002170;28;20450;-81
2023/03/10 04:30:42;;;;;;;7.27;3.13;;;9.70;99.90;;;;;;5021297;28;20485;-82
2023/03/10 04:33:09;;;;;;;3.37;2.97;;;9.80;99.90;;;;;;5007158;28;21003;-80
2023/03/10 04:35:39;;;;;;;4.83;2.90;;;9.80;99.90;;;;;;5019874;28;20478;-81
2023/03/10 04:38:06;;;;;;;9.00;3.40;;;9.80;99.90;;;;;;5024192;28;20519;-82
2023/03/10 04:40:33;;;;;;;7.27;3.40;;;9.70;99.90;;;;;;5007805;28;20450;-78
2023/03/10 04:43:00;;;;;;;5.80;3.30;;;9.70;99.90;;;;;;5002444;28;20451;-80
2023/03/10 04:45:28;;;;;;;7.00;3.77;;;9.60;99.90;;;;;;5014876;28;20481;-81
2023/03/10 04:47:54;;;;;;;8.60;4.10;;;9.60;99.90;;;;;;5013670;28;20456;-81
2023/03/10 04:50:21;;;;;;;8.47;3.70;;;9.50;99.90;;;;;;5017981;28;20488;-79
2023/03/10 04:52:48;;;;;;;6.03;3.47;;;9.50;99.90;;;;;;5018247;28;20538;-81
2023/03/10 04:55:16;;;;;;;7.03;3.23;;;9.50;99.90;;;;;;5006847;28;20459;-81
2023/03/10 04:57:42;;;;;;;8.63;3.70;;;9.60;99.90;;;;;;4998677;28;20455;-81
2023/03/10 05:00:11;;;;;;;5.50;3.80;;;9.60;99.90;;;;;;5008760;28;20458;-80
2023/03/10 05:02:40;;;;;;;6.43;3.90;;;9.60;99.90;;;;;;5019159;28;20469;-82
2023/03/10 05:05:07;;;;;;;6.53;3.83;;;9.50;99.90;;;;;;5011449;28;20827;-80
2023/03/10 05:07:34;;;;;;;6.60;2.90;;;9.50;99.90;;;;;;5004200;28;20452;-80
2023/03/10 05:10:01;;;;;;;4.30;2.80;;;9.50;99.90;;;;;;4999203;28;20865;-79
2023/03/10 05:12:28;;;;;;;6.47;2.80;;;9.50;99.90;;;;;;4999942;28;20471;-81
2023/03/10 05:14:55;;;;;;;4.80;2.80;;;9.50;99.90;;;;;;5006240;28;20463;-82
2023/03/10 05:17:21;;;;;;;6.43;3.43;;;9.50;99.90;;;;;;5018244;28;20479;-81
2023/03/10 05:19:50;;;;;;;4.97;3.10;;;9.60;99.90;;;;;;5015937;28;20512;-82
2023/03/10 05:22:16;;;;;;;4.70;3.27;;;9.50;99.90;;;;;;5000379;28;20518;-81
2023/03/10 05:24:43;;;;;;;7.20;3.60;;;9.50;99.90;;;;;;5003728;28;20495;-80
2023/03/10 05:27:10;;;;;;;8.20;3.50;;;9.50;99.90;;;;;;5021394;28;20483;-80
2023/03/10 05:29:38;;;;;;;5.90;3.60;;;9.50;99.90;;;;;;5019670;28;20585;-80
2023/03/10 05:32:06;;;;;;;3.87;3.20;;;9.50;99.90;;;;;;5021117;28;20451;-79
2023/03/10 05:34:33;;;;;;;7.37;2.87;;;9.50;99.90;;;;;;5017679;28;20452;-78
2023/03/10 05:37:01;;;;;;;8.03;2.80;;;9.50;99.90;;;;;;5017158;28;20476;-80
2023/03/10 05:39:28;;;;;;;7.03;3.17;;;9.50;99.90;;;;;;5016065;28;20449;-79
2023/03/10 05:41:55;;;;;;;5.77;2.87;;;9.50;99.90;;;;;;4997467;28;20543;-81
2023/03/10 05:44:21;;;;;;;5.37;2.37;;;9.50;99.90;;;;;;5010722;28;20987;-79
2023/03/10 05:46:48;;;;;;;4.10;2.63;;;9.40;99.90;;;;;;5016398;28;20475;-80
2023/03/10 05:49:15;;;;;;;3.40;1.57;;;9.30;99.90;;;;;;5002714;28;20967;-80
2023/03/10 05:51:42;;;;;;;9.80;2.50;;;9.20;99.90;;;;;;4996332;28;20462;-80
2023/03/10 05:54:10;;;;;;;6.90;2.80;;;9.10;99.90;;;;;;5004620;28;20563;-78
2023/03/10 05:56:37;;;;;;;17.20;3.30;;;9.10;99.90;;;;;;4995706;28;20485;-80
2023/03/10 05:59:05;;;;;;;5.90;2.93;;;9.00;99.90;;;;;;4998946;28;20467;-84
2023/03/10 06:01:32;;;;;;;8.60;2.80;;;8.90;99.90;;;;;;4997115;28;20470;-80
2023/03/10 06:03:59;;;;;;;4.10;2.50;;;8.90;99.90;;;;;;4995512;28;21005;-79
2023/03/10 06:06:26;;;;;;;7.80;3.57;;;8.90;99.90;;;;;;4996187;28;20473;-80
2023/03/10 06:08:53;;;;;;;5.83;2.10;;;8.90;99.90;;;;;;5004604;28;20461;-81
2023/03/10 06:11:21;;;;;;;11.70;3.40;;;8.90;99.90;;;;;;5012028;28;20492;-80
2023/03/10 06:13:48;;;;;;;10.33;2.63;;;9.00;99.90;;;;;;5002730;28;20475;-82
2023/03/10 06:16:15;;;;;;;6.90;3.23;;;9.00;99.90;;;;;;5007075;28;20468;-81
2023/03/10 06:18:42;;;;;;;11.67;3.07;;;9.10;99.90;;;;;;4996845;28;20439;-81
2023/03/10 06:21:11;;;;;;;11.40;3.00;;;9.20;99.90;;;;;;4999185;28;20456;-80
2023/03/10 06:23:38;;;;;;;4.13;2.07;;;9.20;99.90;;;;;;4998106;28;20479;-81
2023/03/10 06:26:07;;;;;;;8.20;2.50;;;9.20;99.90;;;;;;4997233;28;20488;-82
2023/03/10 06:28:38;;;;;;;9.10;3.67;;;9.30;99.90;;;;;;5001892;28;20456;-80
2023/03/10 06:31:06;;;;;;;11.10;3.33;;;9.30;99.90;;;;;;4996396;28;20492;-81
2023/03/10 06:33:34;;;;;;;8.83;2.53;;;9.30;99.90;;;;;;5001094;28;20452;-80
2023/03/10 06:36:00;;;;;;;8.60;3.57;;;9.40;99.90;;;;;;5000324;28;20488;-82
2023/03/10 06:38:29;;;;;;;11.77;2.03;;;9.40;99.90;;;;;;5006697;28;20457;-83
2023/03/10 06:40:56;;;;;;;6.73;2.00;;;9.40;99.90;;;;;;5014937;28;20842;-82
2023/03/10 06:43:23;;;;;;;9.00;1.67;;;9.50;99.90;;;;;;4997064;28;20461;-81
2023/03/10 06:45:51;;;;;;;6.07;2.20;;;9.50;99.90;;;;;;4998904;28;20561;-81
2023/03/10 06:48:18;;;;;;;8.13;2.00;;;9.50;99.90;;;;;;5008015;28;20847;-82
2023/03/10 06:50:47;;;;;;;10.33;2.70;;;9.50;99.90;;;;;;5003674;28;20552;-80
2023/03/10 06:53:16;;;;;;;8.73;2.10;;;9.70;99.90;;;;;;4997092;28;20459;-79
2023/03/10 06:55:43;;;;;;;4.40;2.50;;;9.80;99.90;;;;;;4996823;28;20478;-84
2023/03/10 06:58:10;;;;;;;6.43;1.67;;;9.90;99.90;;;;;;4996652;28;20457;-80
2023/03/10 07:00:37;;;;;;;10.53;2.00;;;10.00;99.90;;;;;;5005272;28;20459;-83
2023/03/10 07:03:06;;;;;;;6.93;1.93;;;10.20;99.90;;;;;;4994509;28;20496;-81
2023/03/10 07:05:32;;;;;;;6.53;2.27;;;10.30;99.90;;;;;;5007105;28;21035;-80
2023/03/10 07:07:59;;;;;;;5.87;1.97;;;10.40;99.90;;;;;;4997753;28;20553;-82
2023/03/10 07:10:26;;;;;;;11.57;1.80;;;10.40;99.90;;;;;;4997236;28;20493;-83
2023/03/10 07:12:57;;;;;;;2.20;1.10;;;10.50;99.90;;;;;;4999359;28;20506;-82
2023/03/10 07:15:25;;;;;;;6.87;2.23;;;10.50;99.90;;;;;;4998230;28;20465;-81
2023/03/10 07:17:54;;;;;;;8.07;3.80;;;10.40;99.90;;;;;;4998741;28;20489;-82
2023/03/10 07:20:23;;;;;;;5.83;1.70;;;10.30;99.90;;;;;;5009740;28;20457;-79
2023/03/10 07:22:50;;;;;;;6.23;1.47;;;10.20;99.90;;;;;;5013317;28;20463;-83
2023/03/10 07:25:17;;;;;;;3.17;1.50;;;10.20;99.90;;;;;;5007162;28;20973;-83
2023/03/10 07:27:44;;;;;;;4.87;1.80;;;10.20;99.90;;;;;;5020271;28;20459;-82
2023/03/10 07:30:12;;;;;;;8.20;2.17;;;10.30;99.90;;;;;;5006714;28;20493;-83
2023/03/10 07:32:40;;;;;;;12.93;2.37;;;10.30;99.90;;;;;;5012968;28;20461;-82
2023/03/10 07:35:07;;;;;;;6.80;1.83;;;10.50;99.90;;;;;;5006053;28;20547;-81
2023/03/10 07:37:39;;;;;;;8.60;2.33;;;10.70;99.90;;;;;;5016835;28;20991;-80
2023/03/10 07:40:08;;;;;;;15.60;3.73;;;10.90;99.90;;;;;;5012686;28;20450;-84
2023/03/10 07:42:34;;;;;;;8.43;2.30;;;11.10;99.90;;;;;;5008742;28;20458;-84
2023/03/10 07:45:01;;;;;;;4.57;2.10;;;11.00;99.90;;;;;;5008765;28;20849;-84
2023/03/10 07:47:28;;;;;;;6.73;2.60;;;10.90;99.90;;;;;;5010449;28;20512;-85
2023/03/10 07:49:55;;;;;;;4.17;2.27;;;10.90;99.90;;;;;;5018071;28;20448;-83
2023/03/10 07:52:22;;;;;;;7.23;2.57;;;10.90;99.90;;;;;;5019377;28;20455;-83
2023/03/10 07:54:50;;;;;;;8.03;2.60;;;10.90;99.90;;;;;;5004035;28;20976;-84
2023/03/10 07:57:17;;;;;;;9.57;4.50;;;10.90;99.90;;;;;;5006465;28;20488;-84
2023/03/10 07:59:44;;;;;;;8.70;4.13;;;10.80;99.90;;;;;;5009108;28;20468;-82
2023/03/10 08:02:13;;;;;;;6.67;2.93;;;10.90;99.90;;;;;;5023172;28;20527;-83
2023/03/10 08:04:40;;;;;;;8.60;3.80;;;10.80;99.90;;;;;;5001390;28;20462;-82
2023/03/10 08:07:07;;;;;;;12.13;2.70;;;10.60;99.90;;;;;;4998807;28;21030;-83
2023/03/10 08:09:34;;;;;;;6.53;3.10;;;10.60;99.90;;;;;;5002045;28;20468;-82
2023/03/10 08:12:03;;;;;;;6.43;2.40;;;10.50;99.90;;;;;;5006662;28;20493;-82
2023/03/10 08:14:31;;;;;;;9.87;2.73;;;10.50;99.90;;;;;;5006581;28;20471;-82
2023/03/10 08:16:58;;;;;;;7.17;2.93;;;10.40;99.90;;;;;;5003892;28;20472;-82
2023/03/10 08:19:26;;;;;;;4.40;2.33;;;10.40;99.90;;;;;;5001261;28;20454;-82
2023/03/10 08:21:54;;;;;;;4.33;2.20;;;10.50;99.90;;;;;;5011388;28;20516;-83
2023/03/10 08:24:21;;;;;;;5.40;2.37;;;10.50;99.90;;;;;;5006001;28;20985;-81
2023/03/10 08:26:48;;;;;;;4.90;2.23;;;10.50;99.90;;;;;;5021705;28;20484;-83
2023/03/10 08:29:16;;;;;;;5.03;2.67;;;10.40;99.90;;;;;;5006155;28;20456;-83
2023/03/10 08:31:43;;;;;;;4.50;2.30;;;10.30;99.90;;;;;;5008690;28;20483;-82
2023/03/10 08:34:09;;;;;;;5.03;2.50;;;10.40;99.90;;;;;;5009935;28;20699;-81
2023/03/10 08:36:36;;;;;;;6.20;3.27;;;10.60;99.90;;;;;;5019727;28;20472;-84
2023/03/10 08:39:04;;;;;;;6.57;2.80;;;10.80;99.90;;;;;;5027806;28;20490;-82
2023/03/10 08:41:33;;;;;;;5.30;2.40;;;11.00;99.90;;;;;;5007649;28;20454;-83
2023/03/10 08:44:00;;;;;;;4.97;2.70;;;10.90;99.90;;;;;;5025642;28;20460;-83
2023/03/10 08:46:30;;;;;;;6.73;2.50;;;10.90;99.90;;;;;;5007469;28;20482;-84
2023/03/10 08:48:58;;;;;;;7.53;2.83;;;10.80;99.90;;;;;;5006777;28;20493;-81
2023/03/10 08:51:25;;;;;;;5.23;2.40;;;10.80;99.90;;;;;;5018941;28;20584;-83
2023/03/10 08:53:52;;;;;;;9.37;3.00;;;10.90;99.90;;;;;;5025117;28;20463;-84
2023/03/10 08:56:22;;;;;;;5.30;2.47;;;10.80;99.90;;;;;;5023099;28;20477;-84
2023/03/10 08:58:49;;;;;;;12.87;3.80;;;11.00;99.90;;;;;;5008368;28;20529;-83
2023/03/10 09:01:17;;;;;;;8.27;3.23;;;11.10;99.90;;;;;;5007795;28;20464;-82
2023/03/10 09:03:46;;;;;;;13.33;4.13;;;10.90;99.90;;;;;;5009302;28;20837;-84
2023/03/10 09:06:13;;;;;;;8.27;3.83;;;10.90;99.90;;;;;;5014514;28;20505;-82
2023/03/10 09:08:41;;;;;;;7.30;3.17;;;10.90;99.90;;;;;;5014987;28;20458;-83
2023/03/10 09:11:08;;;;;;;11.40;4.50;;;11.00;99.90;;;;;;4989609;28;20501;-82
2023/03/10 09:13:35;;;;;;;8.27;3.47;;;11.00;99.90;;;;;;5015797;28;20518;-83
2023/03/10 09:16:02;;;;;;;11.07;3.30;;;11.10;99.90;;;;;;5007866;28;20497;-82
2023/03/10 09:18:29;;;;;;;8.40;3.20;;;11.20;99.90;;;;;;5006044;28;20457;-83
2023/03/10 09:20:57;;;;;;;8.23;3.30;;;11.30;99.90;;;;;;5021127;28;20514;-83
2023/03/10 09:23:24;;;;;;;5.67;2.80;;;11.30;99.90;;;;;;5019169;28;20562;-83
2023/03/10 09:25:51;;;;;;;10.97;3.40;;;11.30;99.90;;;;;;5003076;28;20478;-82
2023/03/10 09:28:17;;;;;;;7.27;3.00;;;11.10;99.90;;;;;;5005158;28;20518;-83
2023/03/10 09:30:44;;;;;;;10.97;3.37;;;11.10;99.90;;;;;;5005098;28;20492;-81
2023/03/10 09:33:15;;;;;;;8.40;2.67;;;11.10;99.90;;;;;;5004980;28;21043;-82
2023/03/10 09:35:43;;;;;;;9.30;3.03;;;11.20;99.90;;;;;;5003950;28;20516;-83
2023/03/10 09:38:12;;;;;;;7.70;2.57;;;11.30;99.90;;;;;;5008517;28;20537;-80
2023/03/10 09:40:42;;;;;;;8.90;3.13;;;11.50;99.90;;;;;;5001585;28;20471;-83
2023/03/10 09:43:15;;;;;;;4.77;2.33;;;11.50;99.90;;;;;;5010632;28;20475;-82
2023/03/10 09:45:51;;;;;;;5.47;2.43;;;11.40;99.90;;;;;;5006986;28;20476;-83
2023/03/10 09:48:32;;;;;;;5.10;2.30;;;11.50;99.90;;;;;;5019913;28;20548;-82
2023/03/10 09:51:04;;;;;;;5.77;2.27;;;11.70;99.90;;;;;;5005517;28;21108;-80
2023/03/10 09:53:54;;;;;;;7.03;2.33;;;12.10;99.90;;;;;;5012734;28;20539;-82
2023/03/10 09:56:26;;;;;;;4.77;2.40;;;12.80;99.90;;;;;;5015034;28;20474;-82
2023/03/10 09:58:56;;;;;;;6.17;2.37;;;13.10;92.70;;;;;;5007163;28;20450;-83
2023/03/10 10:01:26;;;;;;;5.40;2.27;;;13.30;96.60;;;;;;5004107;28;20455;-86
2023/03/10 10:03:56;;;;;;;9.53;2.73;;;13.40;93.80;;;;;;5004316;28;20454;-82
2023/03/10 10:06:25;;;;;;;7.97;2.80;;;13.90;25.60;;;;;;5009674;28;20473;-82
2023/03/10 10:08:56;;;;;;;5.60;1.80;;;16.00;1.00;;;;;;5016670;28;20457;-82
2023/03/10 10:11:23;;;;;;;6.33;2.50;;;16.50;1.00;;;;;;5004916;28;20486;-83
2023/03/10 10:13:51;;;;;;;8.90;2.23;;;15.90;1.00;;;;;;4998220;28;20462;-82
2023/03/10 10:16:30;;;;;;;8.63;2.87;;;15.40;99.90;;;;;;5008886;28;20487;-83
2023/03/10 10:19:03;;;;;;;5.87;2.00;;;15.20;99.90;;;;;;5009309;28;20473;-81
2023/03/10 10:21:38;;;;;;;5.60;2.00;;;14.90;99.90;;;;;;5001633;28;20454;-83
2023/03/10 10:24:07;;;;;;;6.97;2.03;;;15.70;99.90;;;;;;5006268;28;20457;-85
2023/03/10 10:26:33;;;;;;;10.23;2.70;;;17.00;59.30;;;;;;5008242;28;20571;-81
2023/03/10 10:29:05;;;;;;;6.30;2.47;;;17.40;99.90;;;;;;5002152;28;20451;-82
2023/03/10 10:31:33;;;;;;;7.33;2.70;;;17.30;99.90;;;;;;4998039;28;20909;-82
2023/03/10 10:34:02;;;;;;;4.63;2.03;;;17.70;99.90;;;;;;4999772;28;20506;-82
2023/03/10 10:36:31;;;;;;;6.77;2.20;;;18.40;1.00;;;;;;4996429;28;20471;-81
2023/03/10 10:38:58;;;;;;;57.87;24.53;;;17.70;1.00;;;;;;4997645;28;20954;-81
2023/03/10 10:41:30;;;;;;;18.70;8.43;;;16.90;99.90;;;;;;5006707;28;20532;-82
2023/03/10 10:43:59;;;;;;;8.57;2.77;;;17.00;1.00;;;;;;5016979;28;20475;-82
2023/03/10 10:46:28;;;;;;;7.07;2.20;;;17.00;6.10;;;;;;4998328;28;20467;-84
2023/03/10 10:49:04;;;;;;;13.47;2.90;;;17.70;99.90;;;;;;4999853;28;20458;-81
2023/03/10 10:51:34;;;;;;;8.00;2.60;;;16.90;1.00;;;;;;4987313;28;20475;-83
2023/03/10 10:54:05;;;;;;;8.10;2.13;;;16.30;1.00;;;;;;5007092;28;20457;-83
2023/03/10 10:56:33;;;;;;;5.50;2.10;;;15.50;1.00;;;;;;5008102;28;20479;-82
2023/03/10 10:59:04;;;;;;;8.90;2.23;;;14.90;99.90;;;;;;5007543;28;20457;-85
2023/03/10 11:01:47;;;;;;;6.80;2.63;;;14.60;99.20;;;;;;5009257;28;20448;-83
2023/03/10 11:04:14;;;;;;;6.80;1.90;;;14.40;1.00;;;;;;5008978;28;20507;-83
2023/03/10 11:06:41;;;;;;;6.23;2.17;;;14.60;99.90;;;;;;5006798;28;20509;-84
2023/03/10 11:09:13;;;;;;;6.53;2.17;;;14.50;99.90;;;;;;5021840;28;20516;-83
2023/03/10 11:11:52;;;;;;;7.40;2.60;;;14.50;1.00;;;;;;5026571;28;20495;-82
2023/03/10 11:14:33;;;;;;;9.43;2.53;;;14.20;1.00;;;;;;5007197;28;20561;-83
2023/03/10 11:17:05;;;;;;;5.13;1.80;;;14.20;99.90;;;;;;4995328;28;20468;-81
2023/03/10 11:19:41;;;;;;;7.17;1.90;;;14.20;99.90;;;;;;4996613;28;20471;-82
2023/03/10 11:22:21;;;;;;;4.23;1.60;;;14.40;1.00;;;;;;4996512;28;20453;-82
2023/03/10 11:24:57;;;;;;;8.67;2.07;;;14.60;99.90;;;;;;5015091;28;20460;-82
2023/03/10 11:27:41;;;;;;;2.90;1.43;;;14.60;1.00;;;;;;5014658;28;20488;-82
2023/03/10 11:30:15;;;;;;;6.87;1.50;;;14.70;99.90;;;;;;5017086;28;20455;-82
2023/03/10 11:32:57;;;;;;;5.00;1.77;;;14.90;99.90;;;;;;4998539;28;20492;-82
2023/03/10 11:35:28;;;;;;;5.90;2.80;;;15.40;99.90;;;;;;4999823;28;20461;-83
2023/03/10 11:38:06;;;;;;;5.00;2.20;;;15.20;1.00;;;;;;4979699;28;20461;-83
2023/03/10 11:40:41;;;;;;;4.53;2.60;;;15.10;99.90;;;;;;4994119;28;20509;-82
2023/03/10 11:43:20;;;;;;;10.37;3.23;;;14.70;99.90;;;;;;5019455;28;20481;-83
2023/03/10 11:45:51;;;;;;;4.57;3.13;;;14.80;1.00;;;;;;5019175;28;20476;-82
2023/03/10 11:48:52;;;;;;;7.50;5.30;;;15.30;99.90;;;;;;5018102;28;20454;-83
2023/03/10 11:51:27;;;;;;;5.43;2.53;;;16.50;1.00;;;;;;5002895;28;20829;-82
2023/03/10 11:53:57;;;;;;;4.87;2.90;;;17.50;99.90;;;;;;5001468;28;20459;-83
2023/03/10 11:56:26;;;;;;;6.47;2.67;;;17.50;99.90;;;;;;5010573;28;20541;-82
2023/03/10 11:58:58;;;;;;;8.03;2.10;;;17.10;15.70;;;;;;5000582;28;20453;-83
2023/03/10 12:01:29;;;;;;;3.93;1.90;;;16.60;28.30;;;;;;5014580;28;20454;-81
2023/03/10 12:04:04;;;;;;;5.80;1.40;;;15.80;35.90;;;;;;5002422;28;20469;-82
2023/03/10 12:06:36;;;;;;;5.17;2.00;;;15.30;29.60;;;;;;5018448;28;20504;-81
2023/03/10 12:09:05;;;;;;;6.37;2.30;;;14.30;1.00;;;;;;5019583;28;20486;-81
2023/03/10 12:11:35;;;;;;;3.90;1.53;;;13.50;1.00;;;;;;5010684;28;20477;-81
2023/03/10 12:14:03;;;;;;;6.27;2.43;;;12.50;1.00;;;;;;5023340;28;20488;-80
2023/03/10 12:16:33;;;;;;;3.00;1.87;;;12.10;1.00;;;;;;5006461;28;20479;-80
2023/03/10 12:19:00;;;;;;;7.43;2.10;;;11.70;22.60;;;;;;5005950;28;20466;-81
2023/03/10 12:21:29;;;;;;;4.93;2.27;;;11.50;99.90;;;;;;5024524;28;20518;-82
2023/03/10 12:23:57;;;;;;;2.50;1.63;;;11.40;99.90;;;;;;5020912;28;20459;-80
2023/03/10 12:27:02;;;;;;;3.53;2.30;;;11.40;99.90;;;;;;5013913;28;20480;-80
2023/03/10 12:29:48;;;;;;;6.10;1.70;;;11.30;99.90;;;;;;5027485;28;20544;-81
2023/03/10 12:32:45;;;;;;;4.50;2.90;;;11.10;99.90;;;;;;5027861;28;20492;-82
2023/03/10 12:35:46;;;;;;;2.83;1.60;;;11.00;99.90;;;;;;5028722;28;20497;-81
2023/03/10 12:38:41;;;;;;;5.30;2.10;;;10.90;99.90;;;;;;5029347;28;20530;-81
2023/03/10 12:41:09;;;;;;;5.43;2.10;;;10.90;99.90;;;;;;5024519;28;20481;-80
2023/03/10 12:44:07;;;;;;;4.13;2.20;;;10.80;99.90;;;;;;5036193;28;20483;-81
2023/03/10 12:46:47;;;;;;;5.90;2.10;;;10.80;99.90;;;;;;5032931;28;20465;-80
2023/03/10 12:49:25;;;;;;;3.90;1.67;;;11.00;99.90;;;;;;5028258;28;20477;-80
2023/03/10 12:51:58;;;;;;;4.53;1.87;;;11.10;99.90;;;;;;5028545;28;20495;-80
2023/03/10 12:54:47;;;;;;;8.10;2.07;;;11.20;99.90;;;;;;5028856;28;20461;-80
2023/03/10 12:57:18;;;;;;;7.63;1.80;;;11.30;99.90;;;;;;5028626;28;20533;-80
2023/03/10 12:59:55;;;;;;;4.90;1.40;;;11.30;99.90;;;;;;5029147;28;20548;-79
2023/03/10 13:02:33;;;;;;;7.03;1.50;;;11.20;99.90;;;;;;5027715;28;20526;-79
2023/03/10 13:05:04;;;;;;;2.00;1.13;;;11.10;99.90;;;;;;5027561;28;20449;-80
2023/03/10 13:07:31;;;;;;;3.87;1.30;;;11.20;99.90;;;;;;5013867;28;20822;-82